Catalina Jet — WDD8449 — position and weather

sailwx.info

Track history (hours):
 
Tides and Currents Weather Stations Pressure Air Temp Water Temp Dewpoint Dewpoint Depression Visibility Wind Speed Wind Dir Waves Ship Positions

Catalina Jet

Owner: RGWT, INC, San Pedro, CA. More information available from US FCC via Universal Licensing System and Coast Guard Vessel Documentation Center.

Last reported at 2017-Sep-26 21:30 UTC. Time now 2017-Sep-26 21:41 UTC.
Position N 33°46' W 118°12'.

Length 42 m; draft 3.7 m.

Type: High speed craft. MMSI: 367008510.

Date/timePositionNaut miles runAvg speedWind from/ knotsBaromVisibWave heightAir tempDewpointWater temp
2017-Sep-26 21:30N 33°46' W 118°12'0 0.9
2017-Sep-26 21:00N 33°45' W 118°12'1326.7
2017-Sep-26 20:30N 33°32' W 118°14'1325.1
2017-Sep-26 20:01N 33°21' W 118°19'0 0.0
2017-Sep-26 19:31N 33°21' W 118°19'0 0.0
2017-Sep-26 19:00N 33°21' W 118°19'1121.3
2017-Sep-26 18:30N 33°31' W 118°17'1325.1
2017-Sep-26 18:00N 33°44' W 118°16'1 2.5
2017-Sep-26 17:30N 33°45' W 118°16'0 0.0
2017-Sep-26 17:00N 33°45' W 118°16'2 3.6
2017-Sep-26 16:30N 33°43' W 118°16'4 8.3
2017-Sep-26 16:00N 33°46' W 118°12'0 0.4
2017-Sep-26 15:30N 33°46' W 118°12'0 0.0
2017-Sep-26 15:00N 33°46' W 118°12'0 0.0
2017-Sep-26 14:28N 33°46' W 118°12'0 0.0
2017-Sep-26 13:54N 33°46' W 118°12'0 0.0
2017-Sep-26 13:29N 33°46' W 118°12'0 0.0
2017-Sep-26 13:00N 33°46' W 118°12'0 0.0
2017-Sep-26 12:31N 33°46' W 118°12'0 0.0
2017-Sep-26 12:00N 33°46' W 118°12'0 0.0
2017-Sep-26 11:26N 33°46' W 118°12'0 0.0
2017-Sep-26 11:00N 33°46' W 118°12'0 0.0
2017-Sep-26 10:30N 33°46' W 118°12'0 0.0
2017-Sep-26 10:00N 33°46' W 118°12'0 0.0
2017-Sep-26 09:30N 33°46' W 118°12'0 0.0
2017-Sep-26 09:00N 33°46' W 118°12'0 0.0
2017-Sep-26 08:30N 33°46' W 118°12'0 0.0
2017-Sep-26 08:00N 33°46' W 118°12'0 0.0
2017-Sep-26 07:29N 33°46' W 118°12'0 0.0
2017-Sep-26 06:57N 33°46' W 118°12'0 0.0
2017-Sep-26 06:30N 33°46' W 118°12'0 0.0
2017-Sep-26 06:00N 33°46' W 118°12'0 0.0
2017-Sep-26 05:02N 33°46' W 118°12'0 0.0
2017-Sep-26 05:00N 33°46' W 118°12'0 0.0
2017-Sep-26 04:29N 33°46' W 118°12'0 0.0
2017-Sep-26 04:00N 33°46' W 118°12'0 0.0
2017-Sep-26 03:30N 33°46' W 118°12'0 0.0
2017-Sep-26 03:00N 33°46' W 118°12'0 0.0
2017-Sep-26 02:27N 33°46' W 118°12'0 0.0
2017-Sep-26 02:00N 33°46' W 118°12'0 0.0
2017-Sep-26 01:30N 33°46' W 118°12'0 0.0
2017-Sep-26 01:00N 33°46' W 118°12'0 0.0
2017-Sep-26 00:29N 33°46' W 118°12'0 0.0
2017-Sep-26 00:00N 33°46' W 118°12'0 0.0
2017-Sep-25 23:30N 33°46' W 118°12'0 0.0
2017-Sep-25 23:00N 33°46' W 118°12'0 0.0
2017-Sep-25 22:29N 33°46' W 118°12'0 0.0
2017-Sep-25 22:00N 33°46' W 118°12'0 0.0
2017-Sep-25 21:30N 33°46' W 118°12'0 0.0
2017-Sep-25 20:59N 33°46' W 118°12'0 0.0
2017-Sep-25 20:30N 33°46' W 118°12'0 0.0
2017-Sep-25 19:59N 33°46' W 118°12'0 0.0
2017-Sep-25 19:28N 33°46' W 118°12'0 0.0
2017-Sep-25 18:59N 33°46' W 118°12'0 0.0
2017-Sep-25 18:30N 33°46' W 118°12'0 0.0
2017-Sep-25 18:00N 33°46' W 118°12'0 0.0
2017-Sep-25 17:30N 33°46' W 118°12'0 0.0
2017-Sep-25 17:00N 33°46' W 118°12'0 0.0
2017-Sep-25 16:30N 33°46' W 118°12'0 0.0
2017-Sep-25 16:00N 33°46' W 118°12'0 0.0
2017-Sep-25 15:30N 33°46' W 118°12'0 0.0
2017-Sep-25 15:00N 33°46' W 118°12'0 0.0
2017-Sep-25 14:30N 33°46' W 118°12'0 0.0
2017-Sep-25 14:00N 33°46' W 118°12'0 0.0
2017-Sep-25 13:30N 33°46' W 118°12'0 0.0
2017-Sep-25 13:00N 33°46' W 118°12'0 0.0
2017-Sep-25 12:30N 33°46' W 118°12'0 0.0
2017-Sep-25 12:01N 33°46' W 118°12'0 0.0
2017-Sep-25 11:30N 33°46' W 118°12'0 0.0
2017-Sep-25 11:00N 33°46' W 118°12'0 0.0
2017-Sep-25 03:39N 33°46' W 118°12'1 3.0
2017-Sep-25 03:29N 33°45' W 118°11'1226.4
2017-Sep-25 03:01N 33°33' W 118°14'1326.6
2017-Sep-25 02:30N 33°21' W 118°19'0 0.0
2017-Sep-25 02:00N 33°21' W 118°19'815.6
2017-Sep-25 01:31N 33°28' W 118°16'1530.3
2017-Sep-25 01:00N 33°43' W 118°11'3 6.3
2017-Sep-25 00:30N 33°46' W 118°12'0 0.0
2017-Sep-25 00:00N 33°46' W 118°12'1121.3
2017-Sep-24 23:31N 33°35' W 118°13'1530.2
2017-Sep-24 23:01N 33°21' W 118°19'0 0.7
2017-Sep-24 22:31N 33°21' W 118°19'0 0.6
2017-Sep-24 22:01N 33°21' W 118°19'1530.1
2017-Sep-24 21:31N 33°35' W 118°14'1120.6
2017-Sep-24 21:00N 33°46' W 118°12'0 0.0
2017-Sep-24 20:30N 33°46' W 118°12'0 0.0
2017-Sep-24 20:00N 33°46' W 118°12'917.2
2017-Sep-24 19:31N 33°37' W 118°11'1631.7
2017-Sep-24 19:00N 33°22' W 118°18'2 4.0
2017-Sep-24 18:30N 33°21' W 118°19'0 0.0
2017-Sep-24 18:00N 33°21' W 118°19'1224.6
2017-Sep-24 17:31N 33°32' W 118°15'1326.7
2017-Sep-24 17:00N 33°45' W 118°11'1 1.1
2017-Sep-24 16:28N 33°46' W 118°12'0 0.0
2017-Sep-24 16:01N 33°46' W 118°12'4 8.3
2017-Sep-24 15:31N 33°42' W 118°11'1832.1
2017-Sep-24 14:56N 33°24' W 118°18'4 8.1
2017-Sep-24 14:27N 33°21' W 118°19'0 0.7
2017-Sep-24 14:00N 33°21' W 118°19'1530.9
2017-Sep-24 13:31N 33°36' W 118°14'1020.3
2017-Sep-24 13:00N 33°46' W 118°12'0 0.0
2017-Sep-24 12:30N 33°46' W 118°12'0 0.0
2017-Sep-24 10:51N 33°46' W 118°12'0 0.0
2017-Sep-24 10:30N 33°46' W 118°12'0 0.0
2017-Sep-24 03:47N 33°46' W 118°12'0 1.5
2017-Sep-24 03:30N 33°45' W 118°12'1224.8
2017-Sep-24 03:00N 33°33' W 118°13'1427.0
2017-Sep-24 02:30N 33°21' W 118°19'0 0.1
2017-Sep-24 02:00N 33°21' W 118°19'918.5
2017-Sep-24 01:30N 33°29' W 118°15'1530.3
2017-Sep-24 01:01N 33°44' W 118°11'2 4.1
2017-Sep-24 00:30N 33°46' W 118°12'0 0.0
2017-Sep-24 00:00N 33°46' W 118°12'714.6
2017-Sep-23 23:31N 33°39' W 118°12'1530.2
2017-Sep-23 23:00N 33°24' W 118°18'4 7.4
2017-Sep-23 22:30N 33°21' W 118°19'2 3.2
2017-Sep-23 22:00N 33°22' W 118°19'1530.1
2017-Sep-23 21:30N 33°37' W 118°13'917.1
2017-Sep-23 20:58N 33°46' W 118°12'0 0.0
2017-Sep-23 20:25N 33°46' W 118°12'1 1.4
2017-Sep-23 19:38N 33°45' W 118°11'1 0.0
2017-Sep-21 20:18N 33°45' W 118°12'0 0.0
2017-Sep-21 20:00N 33°45' W 118°12'0 0.0
2017-Sep-21 19:28N 33°45' W 118°12'0 0.0
2017-Sep-21 19:00N 33°45' W 118°12'0 0.0
2017-Sep-21 18:28N 33°45' W 118°12'0 0.0
2017-Sep-21 17:58N 33°45' W 118°12'0 0.0
2017-Sep-21 17:29N 33°45' W 118°12'0 0.0
2017-Sep-21 17:00N 33°45' W 118°12'0 0.0
2017-Sep-21 16:29N 33°45' W 118°12'0 0.0
2017-Sep-21 16:00N 33°45' W 118°12'0 0.0
2017-Sep-21 15:29N 33°45' W 118°12'0 0.0
2017-Sep-21 14:58N 33°45' W 118°12'0 0.0
2017-Sep-21 14:11N 33°45' W 118°12'0 0.0
2017-Sep-21 13:50N 33°45' W 118°12'0 0.0
2017-Sep-21 13:22N 33°45' W 118°12'0 0.0
2017-Sep-21 12:56N 33°45' W 118°12'  
2017-Sep-18 05:47N 33°45' W 118°12'0 1.4
2017-Sep-18 05:30N 33°46' W 118°12'0 0.5
2017-Sep-18 04:59N 33°46' W 118°12'0 0.0
2017-Sep-18 04:27N 33°46' W 118°12'0 0.0
2017-Sep-18 03:59N 33°46' W 118°12'2 3.6
2017-Sep-18 03:29N 33°44' W 118°11'1827.1
2017-Sep-18 02:48N 33°27' W 118°17'611.2
2017-Sep-18 02:15N 33°21' W 118°19'0 0.9
2017-Sep-18 01:45N 33°21' W 118°19'730.2
2017-Sep-18 01:31N 33°28' W 118°16'1630.4
2017-Sep-18 00:58N 33°44' W 118°11'2 4.1
2017-Sep-18 00:27N 33°46' W 118°12'0 0.5
2017-Sep-17 23:57N 33°46' W 118°12'1926.0
2017-Sep-17 23:12N 33°27' W 118°17'6 5.4
2017-Sep-17 22:03N 33°21' W 118°19'225.5
2017-Sep-17 21:59N 33°23' W 118°18'1530.4
2017-Sep-17 21:30N 33°37' W 118°13'918.5
2017-Sep-17 21:00N 33°46' W 118°12'0 0.0
2017-Sep-17 20:30N 33°46' W 118°12'0 0.1
2017-Sep-17 20:00N 33°46' W 118°12'1219.8
2017-Sep-17 19:24N 33°34' W 118°13'1229.8
2017-Sep-17 18:59N 33°22' W 118°18'1 1.3
2017-Sep-17 17:57N 33°21' W 118°19'1927.4
2017-Sep-17 17:15N 33°39' W 118°12'617.7
2017-Sep-17 16:53N 33°46' W 118°12'0 0.2
2017-Sep-17 15:53N 33°46' W 118°12'615.5
2017-Sep-17 15:28N 33°39' W 118°11'1431.3
2017-Sep-17 15:00N 33°26' W 118°17'5 6.2
2017-Sep-17 14:07N 33°21' W 118°19'110.7
2017-Sep-17 14:00N 33°22' W 118°19'2523.6
2017-Sep-17 12:58N 33°46' W 118°12'0 0.0
2017-Sep-17 12:25N 33°46' W 118°12'0 0.0
2017-Sep-17 11:47N 33°46' W 118°12'0 0.0
2017-Sep-17 11:20N 33°46' W 118°12'0 0.0
2017-Sep-17 10:23N 33°46' W 118°12'0 0.0
2017-Sep-17 09:52N 33°46' W 118°12'0 0.0
2017-Sep-17 09:23N 33°46' W 118°12'0 0.0
2017-Sep-17 09:00N 33°46' W 118°12'0 0.0
2017-Sep-17 08:30N 33°46' W 118°12'0 0.0
2017-Sep-17 07:56N 33°46' W 118°12'0 0.0
2017-Sep-17 07:21N 33°46' W 118°12'0 0.0
2017-Sep-17 06:56N 33°46' W 118°12'0 0.0
2017-Sep-17 06:29N 33°46' W 118°12'0 0.0
2017-Sep-17 05:46N 33°46' W 118°12'0 0.0
2017-Sep-17 05:28N 33°46' W 118°12'0 0.0
2017-Sep-17 04:59N 33°46' W 118°12'0 0.0
2017-Sep-17 04:27N 33°46' W 118°12'0 0.0
2017-Sep-17 04:00N 33°46' W 118°12'3 5.6
2017-Sep-17 03:30N 33°43' W 118°11'2417.1
2017-Sep-17 02:08N 33°21' W 118°19'0 0.0
2017-Sep-17 02:00N 33°21' W 118°19'1823.9
2017-Sep-17 01:14N 33°38' W 118°13'729.1
2017-Sep-17 01:00N 33°44' W 118°11'2 2.6
2017-Sep-17 00:24N 33°46' W 118°12'0 0.0
2017-Sep-17 00:00N 33°46' W 118°12'918.4
2017-Sep-16 23:30N 33°37' W 118°13'1715.2
2017-Sep-16 22:23N 33°21' W 118°19'410.4
2017-Sep-16 22:00N 33°25' W 118°18'  
Track history (hours):
 
Tides and Currents Weather Stations Pressure Air Temp Water Temp Dewpoint Dewpoint Depression Visibility Wind Speed Wind Dir Waves Ship Positions

Catalina Jet

Owner: RGWT, INC, San Pedro, CA. More information available from US FCC via Universal Licensing System and Coast Guard Vessel Documentation Center.

Last reported at 2017-Sep-26 21:30 UTC. Time now 2017-Sep-26 21:41 UTC.
Position N 33°46' W 118°12'.

Length 42 m; draft 3.7 m.

Type: High speed craft. MMSI: 367008510.

Date/timePositionNaut miles runAvg speedWind from/ knotsBaromVisibWave heightAir tempDewpointWater temp
2017-Sep-26 21:30N 33°46' W 118°12'0 0.9
2017-Sep-26 21:00N 33°45' W 118°12'1326.7
2017-Sep-26 20:30N 33°32' W 118°14'1325.1
2017-Sep-26 20:01N 33°21' W 118°19'0 0.0
2017-Sep-26 19:31N 33°21' W 118°19'0 0.0
2017-Sep-26 19:00N 33°21' W 118°19'1121.3
2017-Sep-26 18:30N 33°31' W 118°17'1325.1
2017-Sep-26 18:00N 33°44' W 118°16'1 2.5
2017-Sep-26 17:30N 33°45' W 118°16'0 0.0
2017-Sep-26 17:00N 33°45' W 118°16'2 3.6
2017-Sep-26 16:30N 33°43' W 118°16'4 8.3
2017-Sep-26 16:00N 33°46' W 118°12'0 0.4
2017-Sep-26 15:30N 33°46' W 118°12'0 0.0
2017-Sep-26 15:00N 33°46' W 118°12'0 0.0
2017-Sep-26 14:28N 33°46' W 118°12'0 0.0
2017-Sep-26 13:54N 33°46' W 118°12'0 0.0
2017-Sep-26 13:29N 33°46' W 118°12'0 0.0
2017-Sep-26 13:00N 33°46' W 118°12'0 0.0
2017-Sep-26 12:31N 33°46' W 118°12'0 0.0
2017-Sep-26 12:00N 33°46' W 118°12'0 0.0
2017-Sep-26 11:26N 33°46' W 118°12'0 0.0
2017-Sep-26 11:00N 33°46' W 118°12'0 0.0
2017-Sep-26 10:30N 33°46' W 118°12'0 0.0
2017-Sep-26 10:00N 33°46' W 118°12'0 0.0
2017-Sep-26 09:30N 33°46' W 118°12'0 0.0
2017-Sep-26 09:00N 33°46' W 118°12'0 0.0
2017-Sep-26 08:30N 33°46' W 118°12'0 0.0
2017-Sep-26 08:00N 33°46' W 118°12'0 0.0
2017-Sep-26 07:29N 33°46' W 118°12'0 0.0
2017-Sep-26 06:57N 33°46' W 118°12'0 0.0
2017-Sep-26 06:30N 33°46' W 118°12'0 0.0
2017-Sep-26 06:00N 33°46' W 118°12'0 0.0
2017-Sep-26 05:02N 33°46' W 118°12'0 0.0
2017-Sep-26 05:00N 33°46' W 118°12'0 0.0
2017-Sep-26 04:29N 33°46' W 118°12'0 0.0
2017-Sep-26 04:00N 33°46' W 118°12'0 0.0
2017-Sep-26 03:30N 33°46' W 118°12'0 0.0
2017-Sep-26 03:00N 33°46' W 118°12'0 0.0
2017-Sep-26 02:27N 33°46' W 118°12'0 0.0
2017-Sep-26 02:00N 33°46' W 118°12'0 0.0
2017-Sep-26 01:30N 33°46' W 118°12'0 0.0
2017-Sep-26 01:00N 33°46' W 118°12'0 0.0
2017-Sep-26 00:29N 33°46' W 118°12'0 0.0
2017-Sep-26 00:00N 33°46' W 118°12'0 0.0
2017-Sep-25 23:30N 33°46' W 118°12'0 0.0
2017-Sep-25 23:00N 33°46' W 118°12'0 0.0
2017-Sep-25 22:29N 33°46' W 118°12'0 0.0
2017-Sep-25 22:00N 33°46' W 118°12'0 0.0
2017-Sep-25 21:30N 33°46' W 118°12'0 0.0
2017-Sep-25 20:59N 33°46' W 118°12'0 0.0
2017-Sep-25 20:30N 33°46' W 118°12'0 0.0
2017-Sep-25 19:59N 33°46' W 118°12'0 0.0
2017-Sep-25 19:28N 33°46' W 118°12'0 0.0
2017-Sep-25 18:59N 33°46' W 118°12'0 0.0
2017-Sep-25 18:30N 33°46' W 118°12'0 0.0
2017-Sep-25 18:00N 33°46' W 118°12'0 0.0
2017-Sep-25 17:30N 33°46' W 118°12'0 0.0
2017-Sep-25 17:00N 33°46' W 118°12'0 0.0
2017-Sep-25 16:30N 33°46' W 118°12'0 0.0
2017-Sep-25 16:00N 33°46' W 118°12'0 0.0
2017-Sep-25 15:30N 33°46' W 118°12'0 0.0
2017-Sep-25 15:00N 33°46' W 118°12'0 0.0
2017-Sep-25 14:30N 33°46' W 118°12'0 0.0
2017-Sep-25 14:00N 33°46' W 118°12'0 0.0
2017-Sep-25 13:30N 33°46' W 118°12'0 0.0
2017-Sep-25 13:00N 33°46' W 118°12'0 0.0
2017-Sep-25 12:30N 33°46' W 118°12'0 0.0
2017-Sep-25 12:01N 33°46' W 118°12'0 0.0
2017-Sep-25 11:30N 33°46' W 118°12'0 0.0
2017-Sep-25 11:00N 33°46' W 118°12'0 0.0
2017-Sep-25 03:39N 33°46' W 118°12'1 3.0
2017-Sep-25 03:29N 33°45' W 118°11'1226.4
2017-Sep-25 03:01N 33°33' W 118°14'1326.6
2017-Sep-25 02:30N 33°21' W 118°19'0 0.0
2017-Sep-25 02:00N 33°21' W 118°19'815.6
2017-Sep-25 01:31N 33°28' W 118°16'1530.3
2017-Sep-25 01:00N 33°43' W 118°11'3 6.3
2017-Sep-25 00:30N 33°46' W 118°12'0 0.0
2017-Sep-25 00:00N 33°46' W 118°12'1121.3
2017-Sep-24 23:31N 33°35' W 118°13'1530.2
2017-Sep-24 23:01N 33°21' W 118°19'0 0.7
2017-Sep-24 22:31N 33°21' W 118°19'0 0.6
2017-Sep-24 22:01N 33°21' W 118°19'1530.1
2017-Sep-24 21:31N 33°35' W 118°14'1120.6
2017-Sep-24 21:00N 33°46' W 118°12'0 0.0
2017-Sep-24 20:30N 33°46' W 118°12'0 0.0
2017-Sep-24 20:00N 33°46' W 118°12'917.2
2017-Sep-24 19:31N 33°37' W 118°11'1631.7
2017-Sep-24 19:00N 33°22' W 118°18'2 4.0
2017-Sep-24 18:30N 33°21' W 118°19'0 0.0
2017-Sep-24 18:00N 33°21' W 118°19'1224.6
2017-Sep-24 17:31N 33°32' W 118°15'1326.7
2017-Sep-24 17:00N 33°45' W 118°11'1 1.1
2017-Sep-24 16:28N 33°46' W 118°12'0 0.0
2017-Sep-24 16:01N 33°46' W 118°12'4 8.3
2017-Sep-24 15:31N 33°42' W 118°11'1832.1
2017-Sep-24 14:56N 33°24' W 118°18'4 8.1
2017-Sep-24 14:27N 33°21' W 118°19'0 0.7
2017-Sep-24 14:00N 33°21' W 118°19'1530.9
2017-Sep-24 13:31N 33°36' W 118°14'1020.3
2017-Sep-24 13:00N 33°46' W 118°12'0 0.0
2017-Sep-24 12:30N 33°46' W 118°12'0 0.0
2017-Sep-24 10:51N 33°46' W 118°12'0 0.0
2017-Sep-24 10:30N 33°46' W 118°12'0 0.0
2017-Sep-24 03:47N 33°46' W 118°12'0 1.5
2017-Sep-24 03:30N 33°45' W 118°12'1224.8
2017-Sep-24 03:00N 33°33' W 118°13'1427.0
2017-Sep-24 02:30N 33°21' W 118°19'0 0.1
2017-Sep-24 02:00N 33°21' W 118°19'918.5
2017-Sep-24 01:30N 33°29' W 118°15'1530.3
2017-Sep-24 01:01N 33°44' W 118°11'2 4.1
2017-Sep-24 00:30N 33°46' W 118°12'0 0.0
2017-Sep-24 00:00N 33°46' W 118°12'714.6
2017-Sep-23 23:31N 33°39' W 118°12'1530.2
2017-Sep-23 23:00N 33°24' W 118°18'4 7.4
2017-Sep-23 22:30N 33°21' W 118°19'2 3.2
2017-Sep-23 22:00N 33°22' W 118°19'1530.1
2017-Sep-23 21:30N 33°37' W 118°13'917.1
2017-Sep-23 20:58N 33°46' W 118°12'0 0.0
2017-Sep-23 20:25N 33°46' W 118°12'1 1.4
2017-Sep-23 19:38N 33°45' W 118°11'1 0.0
2017-Sep-21 20:18N 33°45' W 118°12'0 0.0
2017-Sep-21 20:00N 33°45' W 118°12'0 0.0
2017-Sep-21 19:28N 33°45' W 118°12'0 0.0
2017-Sep-21 19:00N 33°45' W 118°12'0 0.0
2017-Sep-21 18:28N 33°45' W 118°12'0 0.0
2017-Sep-21 17:58N 33°45' W 118°12'0 0.0
2017-Sep-21 17:29N 33°45' W 118°12'0 0.0
2017-Sep-21 17:00N 33°45' W 118°12'0 0.0
2017-Sep-21 16:29N 33°45' W 118°12'0 0.0
2017-Sep-21 16:00N 33°45' W 118°12'0 0.0
2017-Sep-21 15:29N 33°45' W 118°12'0 0.0
2017-Sep-21 14:58N 33°45' W 118°12'0 0.0
2017-Sep-21 14:11N 33°45' W 118°12'0 0.0
2017-Sep-21 13:50N 33°45' W 118°12'0 0.0
2017-Sep-21 13:22N 33°45' W 118°12'0 0.0
2017-Sep-21 12:56N 33°45' W 118°12'  
2017-Sep-18 05:47N 33°45' W 118°12'0 1.4
2017-Sep-18 05:30N 33°46' W 118°12'0 0.5
2017-Sep-18 04:59N 33°46' W 118°12'0 0.0
2017-Sep-18 04:27N 33°46' W 118°12'0 0.0
2017-Sep-18 03:59N 33°46' W 118°12'2 3.6
2017-Sep-18 03:29N 33°44' W 118°11'1827.1
2017-Sep-18 02:48N 33°27' W 118°17'611.2
2017-Sep-18 02:15N 33°21' W 118°19'0 0.9
2017-Sep-18 01:45N 33°21' W 118°19'730.2
2017-Sep-18 01:31N 33°28' W 118°16'1630.4
2017-Sep-18 00:58N 33°44' W 118°11'2 4.1
2017-Sep-18 00:27N 33°46' W 118°12'0 0.5
2017-Sep-17 23:57N 33°46' W 118°12'1926.0
2017-Sep-17 23:12N 33°27' W 118°17'6 5.4
2017-Sep-17 22:03N 33°21' W 118°19'225.5
2017-Sep-17 21:59N 33°23' W 118°18'1530.4
2017-Sep-17 21:30N 33°37' W 118°13'918.5
2017-Sep-17 21:00N 33°46' W 118°12'0 0.0
2017-Sep-17 20:30N 33°46' W 118°12'0 0.1
2017-Sep-17 20:00N 33°46' W 118°12'1219.8
2017-Sep-17 19:24N 33°34' W 118°13'1229.8
2017-Sep-17 18:59N 33°22' W 118°18'1 1.3
2017-Sep-17 17:57N 33°21' W 118°19'1927.4
2017-Sep-17 17:15N 33°39' W 118°12'617.7
2017-Sep-17 16:53N 33°46' W 118°12'0 0.2
2017-Sep-17 15:53N 33°46' W 118°12'615.5
2017-Sep-17 15:28N 33°39' W 118°11'1431.3
2017-Sep-17 15:00N 33°26' W 118°17'5 6.2
2017-Sep-17 14:07N 33°21' W 118°19'110.7
2017-Sep-17 14:00N 33°22' W 118°19'2523.6
2017-Sep-17 12:58N 33°46' W 118°12'0 0.0
2017-Sep-17 12:25N 33°46' W 118°12'0 0.0
2017-Sep-17 11:47N 33°46' W 118°12'0 0.0
2017-Sep-17 11:20N 33°46' W 118°12'0 0.0
2017-Sep-17 10:23N 33°46' W 118°12'0 0.0
2017-Sep-17 09:52N 33°46' W 118°12'0 0.0
2017-Sep-17 09:23N 33°46' W 118°12'0 0.0
2017-Sep-17 09:00N 33°46' W 118°12'0 0.0
2017-Sep-17 08:30N 33°46' W 118°12'0 0.0
2017-Sep-17 07:56N 33°46' W 118°12'0 0.0
2017-Sep-17 07:21N 33°46' W 118°12'0 0.0
2017-Sep-17 06:56N 33°46' W 118°12'0 0.0
2017-Sep-17 06:29N 33°46' W 118°12'0 0.0
2017-Sep-17 05:46N 33°46' W 118°12'0 0.0
2017-Sep-17 05:28N 33°46' W 118°12'0 0.0
2017-Sep-17 04:59N 33°46' W 118°12'0 0.0
2017-Sep-17 04:27N 33°46' W 118°12'0 0.0
2017-Sep-17 04:00N 33°46' W 118°12'3 5.6
2017-Sep-17 03:30N 33°43' W 118°11'2417.1
2017-Sep-17 02:08N 33°21' W 118°19'0 0.0
2017-Sep-17 02:00N 33°21' W 118°19'1823.9
2017-Sep-17 01:14N 33°38' W 118°13'729.1
2017-Sep-17 01:00N 33°44' W 118°11'2 2.6
2017-Sep-17 00:24N 33°46' W 118°12'0 0.0
2017-Sep-17 00:00N 33°46' W 118°12'918.4
2017-Sep-16 23:30N 33°37' W 118°13'1715.2
2017-Sep-16 22:23N 33°21' W 118°19'410.4
2017-Sep-16 22:00N 33°25' W 118°18'  

Dump ship's entire track history